createdAt,value
2018-05-03T00:00:14.203Z,-63
2018-05-03T00:10:14.191Z,-61
2018-05-03T00:20:14.107Z,-62
2018-05-03T00:30:14.221Z,-63
2018-05-03T00:40:15.021Z,-63
2018-05-03T00:50:14.213Z,-62
2018-05-03T01:00:14.175Z,-64
2018-05-03T01:10:14.271Z,-62
2018-05-03T01:20:14.237Z,-62
2018-05-03T01:30:14.295Z,-62
2018-05-03T01:40:14.337Z,-62
2018-05-03T01:50:14.399Z,-63
2018-05-03T02:00:14.320Z,-62
2018-05-03T02:10:14.311Z,-63
2018-05-03T02:20:14.344Z,-63
2018-05-03T02:30:14.226Z,-63
2018-05-03T02:40:14.345Z,-63
2018-05-03T02:50:16.064Z,-64
2018-05-03T03:00:15.180Z,-63
2018-05-03T03:10:14.290Z,-64
2018-05-03T03:20:14.261Z,-63
2018-05-03T03:30:14.362Z,-63
2018-05-03T03:40:14.362Z,-61
2018-05-03T03:50:14.410Z,-62
2018-05-03T04:00:14.337Z,-65
2018-05-03T04:10:14.373Z,-64
2018-05-03T04:20:14.359Z,-64
2018-05-03T04:30:14.351Z,-64
2018-05-03T04:40:14.370Z,-65
2018-05-03T04:50:14.360Z,-63
2018-05-03T05:00:14.446Z,-64
2018-05-03T05:10:14.404Z,-64
2018-05-03T05:20:14.280Z,-64
2018-05-03T05:30:14.476Z,-63
2018-05-03T05:40:14.421Z,-64
2018-05-03T05:50:15.217Z,-62
2018-05-03T06:00:15.298Z,-63
2018-05-03T06:10:14.708Z,-64
2018-05-03T06:20:14.576Z,-65
2018-05-03T06:30:14.666Z,-63
2018-05-03T06:40:14.478Z,-64
2018-05-03T06:50:18.189Z,-64
2018-05-03T07:00:14.662Z,-65
2018-05-03T07:10:14.525Z,-64
2018-05-03T07:20:14.758Z,-60
2018-05-03T07:30:14.460Z,-64
2018-05-03T07:40:14.388Z,-63
2018-05-03T07:50:14.765Z,-63
2018-05-03T08:00:14.475Z,-64
2018-05-03T08:10:14.516Z,-61
2018-05-03T08:20:14.481Z,-63
2018-05-03T08:30:14.464Z,-64
2018-05-03T08:40:14.986Z,-65
2018-05-03T08:50:14.558Z,-64
2018-05-03T09:00:14.520Z,-63
2018-05-03T09:10:15.325Z,-65
2018-05-03T09:20:14.766Z,-64
2018-05-03T09:30:14.608Z,-64
2018-05-03T09:40:15.428Z,-63
2018-05-03T09:50:16.115Z,-62
2018-05-03T10:00:14.561Z,-61
2018-05-03T10:10:15.029Z,-64
2018-05-03T10:20:15.623Z,-61
2018-05-03T10:30:16.897Z,-63
2018-05-03T10:40:15.816Z,-62
2018-05-03T10:50:15.388Z,-64
2018-05-03T11:00:15.720Z,-63
2018-05-03T11:10:14.483Z,-62
2018-05-03T11:20:15.235Z,-62
2018-05-03T11:30:14.502Z,-64
2018-05-03T11:40:15.231Z,-62
2018-05-03T11:50:14.561Z,-64
2018-05-03T12:00:15.585Z,-63
2018-05-03T12:10:15.088Z,-64
2018-05-03T12:20:14.512Z,-64
2018-05-03T12:30:14.837Z,-63
2018-05-03T12:40:15.052Z,-60
2018-05-03T12:50:14.588Z,-62
2018-05-03T13:00:14.731Z,-63
2018-05-03T13:10:14.685Z,-64
2018-05-03T13:20:15.239Z,-62
2018-05-03T13:30:14.804Z,-64
2018-05-03T13:40:14.865Z,-63
2018-05-03T13:50:14.513Z,-63
2018-05-03T14:00:14.616Z,-63
2018-05-03T14:10:15.877Z,-61
2018-05-03T14:20:15.470Z,-62
2018-05-03T14:30:14.490Z,-63
2018-05-03T14:40:14.671Z,-62
2018-05-03T14:50:14.684Z,-63
2018-05-03T15:00:14.496Z,-61
2018-05-03T15:10:14.642Z,-63
2018-05-03T15:20:16.216Z,-62
2018-05-03T15:30:14.482Z,-63
2018-05-03T15:40:14.495Z,-63
2018-05-03T15:50:14.522Z,-63
2018-05-03T16:00:14.504Z,-62
2018-05-03T16:10:14.638Z,-67
2018-05-03T16:20:14.674Z,-69
2018-05-03T16:30:15.593Z,-66
2018-05-03T16:40:14.725Z,-64
2018-05-03T16:50:15.082Z,-65
2018-05-03T17:00:14.600Z,-66
2018-05-03T17:10:14.726Z,-66
2018-05-03T17:20:14.705Z,-66
2018-05-03T17:30:14.672Z,-65
2018-05-03T17:40:14.648Z,-66
2018-05-03T17:50:15.378Z,-66
2018-05-03T18:00:14.598Z,-65
2018-05-03T18:10:14.575Z,-66
2018-05-03T18:20:14.767Z,-64
2018-05-03T18:30:14.869Z,-66
2018-05-03T18:40:14.631Z,-64
2018-05-03T18:50:14.757Z,-66
2018-05-03T19:00:26.815Z,-61
2018-05-03T19:10:14.824Z,-62
2018-05-03T19:20:15.724Z,-62
2018-05-03T19:30:14.787Z,-63
2018-05-03T19:40:14.624Z,-62
2018-05-03T19:50:15.657Z,-59
2018-05-03T20:00:14.655Z,-64
2018-05-03T20:10:14.707Z,-63
2018-05-03T20:20:15.733Z,-63
2018-05-03T20:30:15.252Z,-59
2018-05-03T20:40:15.647Z,-60
2018-05-03T20:50:14.634Z,-62
2018-05-03T21:00:15.805Z,-63
2018-05-03T21:11:24.046Z,-62
2018-05-03T21:20:14.774Z,-64
2018-05-03T21:30:14.689Z,-59
2018-05-03T21:40:14.775Z,-60
2018-05-03T21:50:15.075Z,-59
2018-05-03T22:00:15.554Z,-57
2018-05-03T22:10:16.009Z,-59
2018-05-03T22:20:14.919Z,-59
2018-05-03T22:30:15.350Z,-59
2018-05-03T22:40:14.849Z,-59
2018-05-03T22:50:15.120Z,-58
2018-05-03T23:01:04.968Z,-58
2018-05-03T23:10:28.181Z,-58
2018-05-03T23:20:16.119Z,-58
2018-05-03T23:30:16.003Z,-58
2018-05-03T23:40:14.849Z,-58
2018-05-03T23:50:14.884Z,-59
